Time;durP1;ratioP1;P1;durP2;ratioP2;P2;SDS_P1;SDS_P2;PMS_P1;PMS_P2;Temp;Humidity;BMP_temperature;BMP_pressure;BME280_temperature;BME280_humidity;BME280_pressure;Samples;Min_cycle;Max_cycle;Signal;HPM_P1;HPM_P2
2022/02/13 00:00:07;;;;;;;418.87;110.80;;;;;;;-0.32;100.00;99755.69;5038118;28;20183;-59
2022/02/13 00:02:33;;;;;;;418.77;109.87;;;;;;;-0.22;100.00;99756.94;5041776;28;20041;-60
2022/02/13 00:04:58;;;;;;;419.63;111.47;;;;;;;-0.24;100.00;99764.41;5035177;28;20638;-59
2022/02/13 00:07:24;;;;;;;418.17;113.77;;;;;;;-0.20;100.00;99760.38;5034232;28;20449;-61
2022/02/13 00:09:49;;;;;;;418.70;110.77;;;;;;;-0.23;100.00;99763.63;5033616;28;20032;-59
2022/02/13 00:12:15;;;;;;;417.80;109.53;;;;;;;-0.37;100.00;99743.69;5038478;28;20040;-59
2022/02/13 00:14:41;;;;;;;417.60;111.20;;;;;;;-0.42;100.00;99750.22;5039265;28;20029;-58
2022/02/13 00:17:08;;;;;;;419.30;112.93;;;;;;;-0.48;100.00;99755.84;5034726;28;20029;-60
2022/02/13 00:19:33;;;;;;;417.17;111.23;;;;;;;-0.53;100.00;99752.25;5032963;28;20272;-60
2022/02/13 00:21:59;;;;;;;418.57;111.47;;;;;;;-0.56;100.00;99747.09;5036411;28;20275;-61
2022/02/13 00:24:24;;;;;;;417.27;112.13;;;;;;;-0.60;100.00;99746.13;5037912;28;20044;-60
2022/02/13 00:26:49;;;;;;;417.03;109.43;;;;;;;-0.59;100.00;99741.91;5032933;28;20076;-60
2022/02/13 00:29:15;;;;;;;417.93;111.63;;;;;;;-0.67;100.00;99740.72;5036021;28;20258;-60
2022/02/13 00:31:40;;;;;;;418.17;110.07;;;;;;;-0.64;100.00;99739.22;5038766;28;20041;-60
2022/02/13 00:34:06;;;;;;;418.50;110.87;;;;;;;-0.63;100.00;99743.44;5035524;28;20462;-60
2022/02/13 00:36:31;;;;;;;419.40;109.50;;;;;;;-0.67;100.00;99733.16;5034416;28;20029;-60
2022/02/13 00:38:57;;;;;;;415.63;108.33;;;;;;;-0.72;100.00;99743.03;5033065;28;20029;-59
2022/02/13 00:41:22;;;;;;;416.57;108.67;;;;;;;-0.76;100.00;99733.63;5036372;28;20037;-59
2022/02/13 00:43:47;;;;;;;415.57;110.03;;;;;;;-0.63;100.00;99728.34;5037618;28;20033;-60
2022/02/13 00:46:13;;;;;;;416.53;109.47;;;;;;;-0.58;100.00;99719.31;5031648;28;20037;-58
2022/02/13 00:48:38;;;;;;;415.10;108.23;;;;;;;-0.52;100.00;99721.25;5033712;28;20098;-60
2022/02/13 00:51:04;;;;;;;417.20;109.83;;;;;;;-0.59;100.00;99715.06;5021397;28;20498;-59
2022/02/13 00:53:30;;;;;;;416.20;109.43;;;;;;;-0.47;100.00;99724.81;5035212;28;20029;-59
2022/02/13 00:55:55;;;;;;;416.97;109.80;;;;;;;-0.56;100.00;99721.91;5034312;28;20259;-60
2022/02/13 00:58:20;;;;;;;416.17;109.47;;;;;;;-0.62;100.00;99726.69;5032708;28;20025;-58
2022/02/13 01:00:46;;;;;;;414.67;109.07;;;;;;;-0.76;100.00;99717.66;5034864;28;20383;-59
2022/02/13 01:03:11;;;;;;;415.87;108.17;;;;;;;-0.88;100.00;99720.53;5037246;28;20040;-59
2022/02/13 01:05:37;;;;;;;415.43;109.07;;;;;;;-0.92;100.00;99724.56;5031659;28;20531;-59
2022/02/13 01:08:04;;;;;;;414.63;111.13;;;;;;;-0.95;100.00;99711.84;5032831;28;20021;-60
2022/02/13 01:10:31;;;;;;;417.40;109.70;;;;;;;-0.81;100.00;99720.00;5036423;28;20037;-59
2022/02/13 01:12:58;;;;;;;413.60;107.00;;;;;;;-0.90;100.00;99713.72;5034205;28;20260;-60
2022/02/13 01:15:24;;;;;;;494.53;137.00;;;;;;;-1.03;100.00;99713.19;5035101;28;20653;-59
2022/02/13 01:17:50;;;;;;;415.97;106.50;;;;;;;-0.96;100.00;99719.34;5034664;28;20272;-57
2022/02/13 01:20:15;;;;;;;430.57;112.60;;;;;;;-1.11;100.00;99706.97;5033618;28;20758;-57
2022/02/13 01:22:41;;;;;;;455.23;121.13;;;;;;;-1.16;100.00;99710.91;5033488;28;20030;-61
2022/02/13 01:25:07;;;;;;;434.00;115.43;;;;;;;-1.24;100.00;99702.16;5033055;28;20513;-61
2022/02/13 01:27:33;;;;;;;411.90;104.87;;;;;;;-1.36;100.00;99701.63;5038283;28;20029;-59
2022/02/13 01:29:58;;;;;;;409.70;102.93;;;;;;;-1.48;100.00;99711.09;5036832;28;20271;-59
2022/02/13 01:32:24;;;;;;;411.77;105.37;;;;;;;-1.61;100.00;99692.09;5030830;28;20022;-59
2022/02/13 01:34:49;;;;;;;409.70;103.50;;;;;;;-1.61;100.00;99708.84;5031284;28;20029;-59
2022/02/13 01:37:14;;;;;;;411.13;102.53;;;;;;;-1.76;100.00;99703.09;5035036;28;20037;-60
2022/02/13 01:39:40;;;;;;;411.87;102.63;;;;;;;-1.93;100.00;99693.13;5035457;28;20049;-59
2022/02/13 01:42:09;;;;;;;409.90;102.33;;;;;;;-1.99;100.00;99695.34;5029564;28;20114;-59
2022/02/13 01:44:35;;;;;;;409.33;102.67;;;;;;;-1.93;100.00;99695.63;5032411;28;20978;-58
2022/02/13 01:47:02;;;;;;;409.87;102.97;;;;;;;-1.91;100.00;99695.72;5034715;28;20796;-59
2022/02/13 01:49:28;;;;;;;408.50;99.03;;;;;;;-1.99;100.00;99695.34;5033922;28;20303;-58
2022/02/13 01:52:04;;;;;;;409.83;102.03;;;;;;;-1.98;100.00;99681.97;5030409;28;20603;-60
2022/02/13 01:54:30;;;;;;;408.20;100.37;;;;;;;-2.03;100.00;99677.53;5031185;28;20033;-59
2022/02/13 01:56:55;;;;;;;406.47;100.73;;;;;;;-2.15;100.00;99672.78;5034682;28;20308;-59
2022/02/13 01:59:22;;;;;;;409.27;102.43;;;;;;;-2.06;100.00;99674.88;5033805;28;20738;-59
2022/02/13 02:01:48;;;;;;;408.30;102.60;;;;;;;-2.16;100.00;99681.09;5030827;28;20040;-60
2022/02/13 02:04:13;;;;;;;407.30;98.77;;;;;;;-2.31;100.00;99668.69;5031451;28;20686;-58
2022/02/13 02:06:39;;;;;;;406.70;100.60;;;;;;;-2.36;100.00;99680.16;5035027;28;20053;-59
2022/02/13 02:09:05;;;;;;;406.90;102.20;;;;;;;-2.44;100.00;99678.06;5032920;28;20064;-58
2022/02/13 02:11:31;;;;;;;405.75;99.55;;;;;;;-2.56;100.00;99672.44;5030860;28;20033;-59
2022/02/13 02:13:57;;;;;;;406.83;99.32;;;;;;;-2.49;100.00;99674.47;5031655;28;20025;-58
2022/02/13 02:16:22;;;;;;;407.37;98.47;;;;;;;-2.53;100.00;99663.41;5034153;28;20033;-59
2022/02/13 02:18:48;;;;;;;406.00;97.63;;;;;;;-2.55;100.00;99664.13;5033457;28;20033;-58
2022/02/13 02:21:14;;;;;;;405.17;98.53;;;;;;;-2.58;100.00;99672.34;5028868;28;20039;-60
2022/02/13 02:23:39;;;;;;;404.37;98.17;;;;;;;-2.63;100.00;99672.94;5033929;28;20102;-60
2022/02/13 02:26:06;;;;;;;410.33;99.57;;;;;;;-2.76;100.00;99669.78;5034788;28;20116;-59
2022/02/13 02:28:31;;;;;;;408.73;98.67;;;;;;;-2.82;100.00;99661.97;5031800;28;20033;-60
2022/02/13 02:30:57;;;;;;;407.90;99.53;;;;;;;-2.91;100.00;99658.16;5030671;28;20329;-60
2022/02/13 02:33:23;;;;;;;405.73;97.93;;;;;;;-2.89;100.00;99661.59;5032295;28;20024;-60
2022/02/13 02:35:48;;;;;;;405.67;97.50;;;;;;;-2.96;100.00;99660.41;5032966;28;20818;-60
2022/02/13 02:38:14;;;;;;;407.20;99.80;;;;;;;-3.00;100.00;99662.69;5031158;28;20104;-59
2022/02/13 02:40:41;;;;;;;403.73;97.85;;;;;;;-3.09;100.00;99650.53;5030401;28;20135;-60
2022/02/13 02:43:06;;;;;;;405.10;98.68;;;;;;;-3.18;100.00;99645.06;5031557;28;20419;-60
2022/02/13 02:45:32;;;;;;;403.70;98.57;;;;;;;-3.22;100.00;99650.69;5030159;28;20029;-61
2022/02/13 02:47:57;;;;;;;403.77;98.23;;;;;;;-3.27;100.00;99655.47;5030846;28;20208;-59
2022/02/13 02:50:23;;;;;;;404.00;97.47;;;;;;;-3.30;100.00;99651.94;5031582;28;20061;-60
2022/02/13 02:52:49;;;;;;;404.00;98.20;;;;;;;-3.31;100.00;99655.28;5036057;28;20036;-60
2022/02/13 02:55:14;;;;;;;403.43;97.53;;;;;;;-3.33;100.00;99652.66;5039826;28;20740;-59
2022/02/13 02:57:40;;;;;;;404.17;95.80;;;;;;;-3.17;100.00;99649.28;5035675;28;20021;-61
2022/02/13 03:00:06;;;;;;;405.17;97.30;;;;;;;-3.08;100.00;99648.91;5036086;28;20073;-61
2022/02/13 03:02:32;;;;;;;401.58;95.85;;;;;;;-3.19;100.00;99648.38;5040169;28;20048;-61
2022/02/13 03:04:57;;;;;;;401.67;94.25;;;;;;;-3.28;100.00;99642.88;5037588;28;20064;-61
2022/02/13 03:07:23;;;;;;;406.07;96.53;;;;;;;-3.36;100.00;99645.00;5035225;28;20460;-61
2022/02/13 03:09:48;;;;;;;404.07;98.53;;;;;;;-3.35;100.00;99645.84;5036297;28;20037;-61
2022/02/13 03:12:14;;;;;;;404.80;96.97;;;;;;;-3.46;100.00;99642.78;5038515;28;20028;-60
2022/02/13 03:14:40;;;;;;;400.53;95.57;;;;;;;-3.55;100.00;99639.78;5039479;28;20751;-61
2022/02/13 03:17:06;;;;;;;400.50;94.63;;;;;;;-3.58;100.00;99646.28;5035165;28;20040;-60
2022/02/13 03:19:33;;;;;;;401.30;95.18;;;;;;;-3.69;100.00;99649.09;5036559;28;20060;-61
2022/02/13 03:21:59;;;;;;;401.27;96.22;;;;;;;-3.66;100.00;99655.06;5037472;28;20113;-61
2022/02/13 03:24:24;;;;;;;398.97;92.53;;;;;;;-3.66;100.00;99655.06;5035232;28;20468;-60
2022/02/13 03:26:50;;;;;;;400.03;94.43;;;;;;;-3.76;100.00;99658.69;5036943;28;20118;-60
2022/02/13 03:29:15;;;;;;;400.83;93.30;;;;;;;-3.85;100.00;99654.06;5039850;28;20363;-61
2022/02/13 03:31:41;;;;;;;398.60;94.33;;;;;;;-3.83;100.00;99656.66;5035927;28;20134;-60
2022/02/13 03:34:07;;;;;;;399.43;92.97;;;;;;;-3.78;100.00;99646.09;5037292;28;20033;-60
2022/02/13 03:36:33;;;;;;;399.47;94.50;;;;;;;-3.84;100.00;99659.94;5035361;28;20025;-60
2022/02/13 03:38:58;;;;;;;398.33;94.73;;;;;;;-3.91;100.00;99647.88;5036399;28;20642;-60
2022/02/13 03:41:24;;;;;;;398.73;93.47;;;;;;;-4.01;100.00;99651.53;5037863;28;20041;-61
2022/02/13 03:43:50;;;;;;;397.93;92.67;;;;;;;-3.99;100.00;99661.63;5039632;28;20032;-61
2022/02/13 03:46:15;;;;;;;398.20;95.67;;;;;;;-4.05;100.00;99662.16;5033977;28;20064;-61
2022/02/13 03:48:41;;;;;;;399.53;94.50;;;;;;;-4.09;100.00;99656.88;5039161;28;20037;-61
2022/02/13 03:51:06;;;;;;;396.37;93.53;;;;;;;-4.12;100.00;99650.09;5035971;28;20033;-61
2022/02/13 03:53:32;;;;;;;396.40;91.97;;;;;;;-4.12;100.00;99652.59;5034723;28;20083;-60
2022/02/13 03:55:57;;;;;;;396.17;93.03;;;;;;;-4.00;100.00;99655.75;5034232;28;20037;-60
2022/02/13 03:58:23;;;;;;;397.33;93.67;;;;;;;-4.08;100.00;99659.47;5036518;28;20115;-61
2022/02/13 04:00:48;;;;;;;397.67;93.40;;;;;;;-4.10;100.00;99645.13;5037482;28;20522;-61
2022/02/13 04:03:14;;;;;;;397.27;94.60;;;;;;;-4.19;100.00;99653.00;5037726;28;20112;-60
2022/02/13 04:05:39;;;;;;;395.90;93.70;;;;;;;-4.28;100.00;99650.84;5037377;28;20044;-61
2022/02/13 04:08:05;;;;;;;396.63;95.50;;;;;;;-4.26;100.00;99645.94;5035331;28;20106;-61
2022/02/13 04:10:32;;;;;;;396.13;93.33;;;;;;;-4.23;100.00;99651.97;5036971;28;20042;-60
2022/02/13 04:12:58;;;;;;;396.17;93.93;;;;;;;-4.18;100.00;99644.72;5033990;28;20184;-62
2022/02/13 04:15:24;;;;;;;396.20;93.63;;;;;;;-4.18;100.00;99642.22;5035919;28;20041;-59
2022/02/13 04:17:50;;;;;;;399.67;95.70;;;;;;;-4.13;100.00;99650.00;5041480;28;20029;-59
2022/02/13 04:20:16;;;;;;;396.27;94.00;;;;;;;-4.03;100.00;99637.19;5040207;28;20040;-60
2022/02/13 04:22:42;;;;;;;395.13;94.22;;;;;;;-3.98;100.00;99641.66;5032198;28;20483;-61
2022/02/13 04:25:08;;;;;;;394.23;94.30;;;;;;;-3.98;100.00;99645.81;5034292;28;20095;-60
2022/02/13 04:27:35;;;;;;;396.70;93.60;;;;;;;-3.91;100.00;99637.84;5039149;28;20026;-61
2022/02/13 04:30:00;;;;;;;394.30;90.75;;;;;;;-3.96;100.00;99636.75;5036658;28;20481;-62
2022/02/13 04:32:26;;;;;;;393.30;93.37;;;;;;;-4.00;100.00;99642.38;5033794;28;20059;-60
2022/02/13 04:34:51;;;;;;;394.07;92.63;;;;;;;-4.00;100.00;99633.22;5033926;28;20076;-59
2022/02/13 04:37:17;;;;;;;395.37;93.03;;;;;;;-4.05;100.00;99637.09;5036602;28;20112;-60
2022/02/13 04:39:43;;;;;;;395.03;94.13;;;;;;;-4.08;100.00;99633.59;5036145;28;20037;-60
2022/02/13 04:42:09;;;;;;;393.90;94.87;;;;;;;-4.19;100.00;99636.34;5034211;28;20041;-60
2022/02/13 04:44:34;;;;;;;394.05;91.18;;;;;;;-4.23;100.00;99641.97;5037998;28;20544;-59
2022/02/13 04:46:59;;;;;;;393.87;93.33;;;;;;;-4.19;100.00;99631.34;5040060;28;20034;-60
2022/02/13 04:49:25;;;;;;;393.73;92.57;;;;;;;-4.11;100.00;99629.25;5036584;28;20388;-58
2022/02/13 04:51:50;;;;;;;394.80;92.60;;;;;;;-4.18;100.00;99632.22;5035342;28;20040;-61
2022/02/13 04:54:16;;;;;;;393.90;93.93;;;;;;;-4.16;100.00;99628.16;5035665;28;20063;-61
2022/02/13 04:56:41;;;;;;;395.70;92.90;;;;;;;-4.16;100.00;99630.66;5037759;28;20070;-61
2022/02/13 04:59:07;;;;;;;395.27;96.10;;;;;;;-4.29;100.00;99633.28;5035999;28;20067;-61
2022/02/13 05:01:32;;;;;;;393.60;92.47;;;;;;;-4.22;100.00;99622.81;5033198;28;20041;-57
2022/02/13 05:03:58;;;;;;;392.60;90.73;;;;;;;-4.29;100.00;99624.13;5033589;28;20514;-61
2022/02/13 05:06:23;;;;;;;389.97;90.67;;;;;;;-4.25;100.00;99616.00;5037352;28;20036;-60
2022/02/13 05:08:49;;;;;;;393.73;92.87;;;;;;;-4.22;100.00;99617.81;5034172;28;20060;-60
2022/02/13 05:11:14;;;;;;;392.43;93.23;;;;;;;-4.32;100.00;99623.94;5032234;28;20056;-61
2022/02/13 05:13:39;;;;;;;395.67;93.43;;;;;;;-4.39;100.00;99621.03;5035552;28;20033;-60
2022/02/13 05:16:05;;;;;;;391.80;92.10;;;;;;;-4.43;100.00;99624.13;5035470;28;20108;-59
2022/02/13 05:18:30;;;;;;;393.93;93.23;;;;;;;-4.47;100.00;99613.09;5034655;28;20036;-60
2022/02/13 05:20:56;;;;;;;392.63;91.83;;;;;;;-4.42;100.00;99620.84;5031905;28;20029;-59
2022/02/13 05:23:21;;;;;;;393.63;91.17;;;;;;;-4.49;100.00;99609.63;5036053;28;20079;-61
2022/02/13 05:25:46;;;;;;;392.57;91.93;;;;;;;-4.50;100.00;99615.44;5035986;28;20112;-60
2022/02/13 05:28:12;;;;;;;393.40;91.93;;;;;;;-4.45;100.00;99616.53;5032827;28;20877;-61
2022/02/13 05:30:37;;;;;;;392.93;93.20;;;;;;;-4.36;100.00;99621.19;5031794;28;20091;-60
2022/02/13 05:33:03;;;;;;;392.00;91.87;;;;;;;-4.32;100.00;99618.06;5036639;28;20049;-59
2022/02/13 05:35:28;;;;;;;389.33;89.40;;;;;;;-4.25;100.00;99617.66;5035486;28;20034;-58
2022/02/13 05:37:54;;;;;;;390.83;89.97;;;;;;;-4.32;100.00;99618.94;5032754;28;20116;-60
2022/02/13 05:40:19;;;;;;;392.63;92.43;;;;;;;-4.35;100.00;99631.28;5031257;28;20032;-59
2022/02/13 05:42:45;;;;;;;391.23;92.03;;;;;;;-4.46;100.00;99621.47;5038286;28;20123;-58
2022/02/13 05:45:10;;;;;;;390.80;92.63;;;;;;;-4.52;100.00;99624.47;5020231;28;20036;-59
2022/02/13 05:47:37;;;;;;;391.53;92.73;;;;;;;-4.62;100.00;99620.59;5032031;28;20040;-61
2022/02/13 05:50:03;;;;;;;390.05;90.07;;;;;;;-4.51;100.00;99620.34;5033234;28;20057;-61
2022/02/13 05:52:29;;;;;;;393.70;92.07;;;;;;;-4.57;100.00;99620.00;5035489;28;20036;-61
2022/02/13 05:54:55;;;;;;;390.90;91.93;;;;;;;-4.67;100.00;99626.97;5036768;28;20033;-62
2022/02/13 05:57:20;;;;;;;392.37;93.23;;;;;;;-4.75;100.00;99625.69;5032822;28;20033;-60
2022/02/13 05:59:45;;;;;;;391.13;90.70;;;;;;;-4.87;100.00;99609.13;5033276;28;20121;-61
2022/02/13 06:02:11;;;;;;;391.73;90.67;;;;;;;-4.88;100.00;99620.75;5036794;28;20053;-62
2022/02/13 06:04:36;;;;;;;390.57;92.10;;;;;;;-4.90;100.00;99621.44;5036287;28;20143;-60
2022/02/13 06:07:02;;;;;;;389.80;89.67;;;;;;;-4.93;100.00;99618.78;5033876;28;20044;-60
2022/02/13 06:09:27;;;;;;;391.07;91.53;;;;;;;-4.97;100.00;99625.25;5034783;28;20037;-61
2022/02/13 06:11:52;;;;;;;390.63;91.20;;;;;;;-4.97;100.00;99632.75;5038832;28;20036;-60
2022/02/13 06:14:19;;;;;;;390.27;90.93;;;;;;;-4.97;100.00;99632.75;5033519;28;20029;-61
2022/02/13 06:16:44;;;;;;;392.83;92.93;;;;;;;-4.97;100.00;99632.75;5034734;28;20102;-59
2022/02/13 06:19:10;;;;;;;396.30;91.17;;;;;;;-5.00;100.00;99622.56;5035133;28;20554;-60
2022/02/13 06:21:35;;;;;;;391.40;91.73;;;;;;;-4.93;100.00;99634.66;5038277;28;20033;-59
2022/02/13 06:24:01;;;;;;;390.17;93.90;;;;;;;-4.87;100.00;99634.13;5032942;28;20552;-61
2022/02/13 06:26:27;;;;;;;392.60;93.70;;;;;;;-4.62;100.00;99643.09;5031565;28;20041;-57
2022/02/13 06:28:53;;;;;;;392.27;93.17;;;;;;;-4.49;100.00;99641.28;5034927;28;20088;-59
2022/02/13 06:31:18;;;;;;;396.23;94.05;;;;;;;-4.52;100.00;99641.13;5036053;28;20542;-61
2022/02/13 06:33:44;;;;;;;392.13;91.73;;;;;;;-4.47;100.00;99640.63;5035006;28;20045;-60
2022/02/13 06:36:09;;;;;;;394.33;91.77;;;;;;;-4.41;100.00;99642.59;5031278;28;20809;-61
2022/02/13 06:38:35;;;;;;;392.97;92.50;;;;;;;-4.40;100.00;99630.16;5033560;28;20033;-60
2022/02/13 06:41:00;;;;;;;393.57;93.20;;;;;;;-4.30;100.00;99632.41;5033339;28;20112;-61
2022/02/13 06:43:26;;;;;;;392.63;92.97;;;;;;;-4.15;100.00;99637.38;5033760;28;20166;-61
2022/02/13 06:45:51;;;;;;;393.60;93.20;;;;;;;-4.07;100.00;99638.66;5030848;28;20025;-61
2022/02/13 06:48:17;;;;;;;390.50;90.87;;;;;;;-4.00;100.00;99638.22;5033357;28;20613;-61
2022/02/13 06:50:42;;;;;;;396.23;93.50;;;;;;;-3.89;100.00;99642.16;5033877;28;20061;-61
2022/02/13 06:53:08;;;;;;;392.23;91.87;;;;;;;-3.61;100.00;99644.50;5030408;28;20044;-62
2022/02/13 06:55:33;;;;;;;393.73;93.03;;;;;;;-3.46;100.00;99636.91;5029531;28;20067;-61
2022/02/13 06:57:59;;;;;;;394.00;92.97;;;;;;;-3.39;100.00;99634.78;5033517;28;20025;-61
2022/02/13 07:00:25;;;;;;;398.30;93.93;;;;;;;-3.29;100.00;99628.63;5034779;28;20033;-62
2022/02/13 07:02:50;;;;;;;409.27;99.15;;;;;;;-3.25;100.00;99628.84;5029830;28;20032;-61
2022/02/13 07:05:16;;;;;;;409.17;98.63;;;;;;;-3.11;100.00;99634.56;5028235;28;20041;-60
2022/02/13 07:07:42;;;;;;;405.27;99.60;;;;;;;-2.92;100.00;99631.31;5030742;28;20037;-61
2022/02/13 07:10:10;;;;;;;399.58;95.78;;;;;;;-2.80;100.00;99624.44;5031259;28;20033;-61
2022/02/13 07:12:36;;;;;;;401.08;96.18;;;;;;;-2.65;100.00;99624.31;5031323;28;20048;-61
2022/02/13 07:15:02;;;;;;;405.90;97.37;;;;;;;-2.55;100.00;99623.97;5034742;28;20042;-61
2022/02/13 07:17:27;;;;;;;406.02;97.78;;;;;;;-2.38;100.00;99620.63;5032218;28;20038;-62
2022/02/13 07:19:53;;;;;;;403.97;97.27;;;;;;;-2.35;100.00;99625.78;5029463;28;20885;-60
2022/02/13 07:22:18;;;;;;;404.13;96.83;;;;;;;-2.16;100.00;99619.97;5033244;28;20029;-60
2022/02/13 07:24:44;;;;;;;408.00;101.40;;;;;;;-2.00;100.00;99628.31;5034988;28;20041;-60
2022/02/13 07:27:09;;;;;;;411.93;103.70;;;;;;;-1.88;100.00;99617.97;5032544;28;20028;-63
2022/02/13 07:29:35;;;;;;;412.03;101.23;;;;;;;-1.71;100.00;99613.69;5017642;28;20819;-62
2022/02/13 07:32:01;;;;;;;410.43;99.53;;;;;;;-1.61;100.00;99613.31;5033088;28;20040;-58
2022/02/13 07:34:27;;;;;;;417.80;103.03;;;;;;;-1.48;100.00;99618.06;5032900;28;20292;-60
2022/02/13 07:37:01;;;;;;;424.93;107.83;;;;;;;-1.25;100.00;99619.94;5032480;28;20090;-60
2022/02/13 07:39:26;;;;;;;414.55;103.10;;;;;;;-1.11;100.00;99628.09;5031894;28;20508;-61
2022/02/13 07:41:52;;;;;;;414.80;104.37;;;;;;;-0.98;100.00;99620.28;5041386;28;20064;-61
2022/02/13 07:44:17;;;;;;;418.77;105.37;;;;;;;-0.88;100.00;99622.38;5041603;28;20060;-62
2022/02/13 07:46:43;;;;;;;416.63;105.63;;;;;;;-0.74;100.00;99623.81;5032907;28;20759;-62
2022/02/13 07:49:08;;;;;;;414.37;105.93;;;;;;;-0.55;100.00;99627.94;5033896;28;20106;-61
2022/02/13 07:51:36;;;;;;;416.03;107.97;;;;;;;-0.47;100.00;99624.91;5037152;28;20417;-61
2022/02/13 07:54:01;;;;;;;419.00;109.23;;;;;;;-0.23;100.00;99621.69;5036243;28;20119;-63
2022/02/13 07:56:27;;;;;;;417.03;107.30;;;;;;;-0.02;100.00;99613.28;5035462;28;20294;-61
2022/02/13 07:58:53;;;;;;;417.40;108.50;;;;;;;0.12;98.75;99612.97;5020595;28;20415;-61
2022/02/13 08:01:21;;;;;;;417.43;107.43;;;;;;;0.27;98.60;99611.88;5036061;28;20033;-59
2022/02/13 08:03:47;;;;;;;416.43;109.30;;;;;;;0.45;96.47;99614.22;5035851;28;20280;-59
2022/02/13 08:06:15;;;;;;;419.00;109.23;;;;;;;0.67;94.98;99605.75;5032969;28;20747;-61
2022/02/13 08:08:40;;;;;;;423.60;113.70;;;;;;;0.87;94.15;99607.31;5035290;28;20100;-62
2022/02/13 08:11:06;;;;;;;422.30;114.47;;;;;;;1.06;91.25;99603.78;5036643;28;20609;-61
2022/02/13 08:13:32;;;;;;;424.70;115.87;;;;;;;1.21;89.00;99607.66;5035103;28;20040;-60
2022/02/13 08:15:57;;;;;;;427.33;119.00;;;;;;;1.28;85.59;99598.59;5032768;28;20028;-62
2022/02/13 08:18:23;;;;;;;428.27;118.57;;;;;;;1.44;81.84;99598.31;5035418;28;20067;-59
2022/02/13 08:20:49;;;;;;;424.87;116.93;;;;;;;1.65;79.43;99604.06;5038088;28;20029;-60
2022/02/13 08:23:14;;;;;;;428.53;121.30;;;;;;;1.84;77.20;99600.44;5035146;28;20112;-62
2022/02/13 08:25:41;;;;;;;429.80;124.93;;;;;;;1.86;72.08;99596.28;5033386;28;20447;-61
2022/02/13 08:28:06;;;;;;;429.77;122.07;;;;;;;2.11;71.85;99595.38;5038885;28;20546;-61
2022/02/13 08:30:32;;;;;;;431.33;125.73;;;;;;;2.28;71.84;99595.06;5041769;28;20290;-61
2022/02/13 08:32:58;;;;;;;430.20;123.60;;;;;;;2.41;69.96;99586.16;5039924;28;20029;-61
2022/02/13 08:35:26;;;;;;;430.90;125.97;;;;;;;2.56;69.18;99581.50;5037493;28;20037;-61
2022/02/13 08:37:52;;;;;;;431.20;131.23;;;;;;;2.72;68.71;99590.38;5039013;28;20299;-61
2022/02/13 08:40:17;;;;;;;434.33;132.50;;;;;;;2.88;67.46;99590.00;5040057;28;20315;-61
2022/02/13 08:42:43;;;;;;;434.57;134.60;;;;;;;3.07;66.08;99586.25;5037178;28;20112;-61
2022/02/13 08:45:08;;;;;;;435.07;134.50;;;;;;;3.16;65.34;99583.97;5034230;28;20156;-62
2022/02/13 08:47:34;;;;;;;434.63;134.07;;;;;;;3.37;65.41;99581.09;5037155;28;20048;-62
2022/02/13 08:49:59;;;;;;;437.63;141.17;;;;;;;3.57;63.67;99580.75;5037950;28;20415;-61
2022/02/13 08:52:25;;;;;;;437.47;142.63;;;;;;;3.67;64.18;99566.63;5034749;28;20033;-62
2022/02/13 08:54:50;;;;;;;438.77;145.00;;;;;;;3.81;63.70;99575.44;5035578;28;20267;-61
2022/02/13 08:57:15;;;;;;;439.67;150.63;;;;;;;3.78;64.29;99569.44;5037788;28;20040;-61
2022/02/13 08:59:41;;;;;;;440.00;149.33;;;;;;;3.97;63.95;99567.34;5036713;28;20036;-61
2022/02/13 09:02:06;;;;;;;443.73;152.23;;;;;;;4.11;63.19;99567.66;5035132;28;20097;-61
2022/02/13 09:04:32;;;;;;;444.10;155.77;;;;;;;4.29;62.39;99564.59;5036419;28;20036;-61
2022/02/13 09:07:01;;;;;;;444.50;158.50;;;;;;;4.34;61.53;99553.75;5034353;28;20037;-61
2022/02/13 09:09:31;;;;;;;446.77;163.63;;;;;;;4.54;61.16;99557.53;5035071;28;20264;-61
2022/02/13 09:11:58;;;;;;;448.67;170.07;;;;;;;4.75;61.19;99558.78;5034490;28;20266;-61
2022/02/13 09:14:24;;;;;;;448.97;177.03;;;;;;;4.81;58.61;99562.28;5018566;28;21125;-61
2022/02/13 09:16:50;;;;;;;451.93;180.00;;;;;;;4.97;58.85;99551.56;5032899;28;20275;-63
2022/02/13 09:19:16;;;;;;;449.00;176.33;;;;;;;5.12;57.35;99542.53;5036007;28;20493;-61
2022/02/13 09:21:42;;;;;;;449.97;176.63;;;;;;;5.26;56.53;99546.16;5038250;28;20474;-59
2022/02/13 09:24:07;;;;;;;452.10;181.93;;;;;;;5.41;56.08;99544.72;5034943;28;20279;-62
2022/02/13 09:26:35;;;;;;;454.53;194.50;;;;;;;5.48;55.63;99541.44;5030791;28;20040;-62
2022/02/13 09:29:01;;;;;;;463.90;202.80;;;;;;;5.68;54.28;99540.91;5033208;28;20040;-62
2022/02/13 09:31:27;;;;;;;457.40;193.67;;;;;;;5.84;54.10;99540.28;5036282;28;20311;-61
2022/02/13 09:33:52;;;;;;;457.83;199.13;;;;;;;5.95;53.63;99541.31;5034574;28;20036;-63
2022/02/13 09:36:21;;;;;;;460.47;208.70;;;;;;;6.10;53.86;99539.00;5030769;28;20967;-61
2022/02/13 09:38:48;;;;;;;457.70;207.50;;;;;;;6.20;51.76;99539.94;5032500;28;20068;-61
2022/02/13 09:41:20;;;;;;;457.30;203.47;;;;;;;6.36;50.31;99540.19;5036722;28;20363;-61
2022/02/13 09:43:46;;;;;;;461.53;225.53;;;;;;;6.51;49.07;99533.53;5035662;28;20256;-59
2022/02/13 09:46:14;;;;;;;461.17;220.17;;;;;;;6.47;48.97;99537.75;5031954;28;20314;-60
2022/02/13 09:48:39;;;;;;;462.93;220.17;;;;;;;6.67;48.91;99530.34;5033994;28;20360;-61
2022/02/13 09:51:05;;;;;;;460.50;223.67;;;;;;;6.66;48.67;99521.00;5035591;28;20343;-56
2022/02/13 09:53:34;;;;;;;465.97;233.00;;;;;;;6.77;48.35;99527.06;5028656;28;20111;-60
2022/02/13 09:56:04;;;;;;;465.60;233.70;;;;;;;7.03;48.16;99530.72;5029928;28;20044;-60
2022/02/13 09:58:30;;;;;;;468.37;244.97;;;;;;;7.21;46.51;99519.84;5035785;28;20259;-60
2022/02/13 10:00:58;;;;;;;468.13;242.90;;;;;;;7.34;46.44;99531.88;5031095;28;20704;-60
2022/02/13 10:03:26;;;;;;;468.80;245.70;;;;;;;7.31;45.93;99525.00;5028543;28;20370;-59
2022/02/13 10:05:54;;;;;;;467.23;245.33;;;;;;;7.46;45.37;99520.91;5031713;28;20366;-57
2022/02/13 10:08:36;;;;;;;470.23;255.17;;;;;;;7.46;45.69;99515.78;5034736;28;20116;-59
2022/02/13 10:11:10;;;;;;;470.87;257.93;;;;;;;7.40;46.52;99505.53;5034180;28;20037;-58
2022/02/13 10:13:46;;;;;;;470.73;258.03;;;;;;;7.54;47.05;99509.03;5034695;28;20276;-58
2022/02/13 10:16:19;;;;;;;473.10;269.50;;;;;;;7.80;45.77;99507.53;5034991;28;20398;-60
2022/02/13 10:18:49;;;;;;;472.43;268.77;;;;;;;7.89;45.20;99496.50;5034512;28;20034;-56
2022/02/13 10:21:47;;;;;;;473.30;276.87;;;;;;;7.87;45.10;99485.41;5034292;28;20037;-56
2022/02/13 10:24:37;;;;;;;475.97;280.70;;;;;;;7.91;45.70;99492.25;5031015;28;20031;-56
2022/02/13 10:27:07;;;;;;;475.87;278.67;;;;;;;8.01;46.19;99487.22;5034094;28;20032;-56
2022/02/13 10:29:37;;;;;;;474.70;284.97;;;;;;;8.19;45.54;99481.31;5033518;28;20445;-57
2022/02/13 10:32:12;;;;;;;476.87;285.03;;;;;;;8.28;46.46;99477.09;5029226;28;20095;-57
2022/02/13 10:34:38;;;;;;;475.75;289.58;;;;;;;8.25;46.00;99476.25;5030612;28;20044;-57
2022/02/13 10:37:04;;;;;;;479.30;293.30;;;;;;;8.18;46.16;99466.88;5030731;28;20041;-58
2022/02/13 10:39:29;;;;;;;476.43;286.27;;;;;;;8.32;44.88;99465.22;5032389;28;20131;-56
2022/02/13 10:41:56;;;;;;;480.57;299.70;;;;;;;8.36;45.86;99458.44;5029819;28;20526;-57
2022/02/13 10:44:30;;;;;;;479.63;297.10;;;;;;;8.43;45.46;99438.03;5030040;28;20796;-55
2022/02/13 10:46:56;;;;;;;479.53;303.50;;;;;;;8.40;44.45;99452.50;5031900;28;20038;-57
2022/02/13 10:49:22;;;;;;;481.87;309.33;;;;;;;8.36;45.47;99436.28;5030419;28;20057;-57
2022/02/13 10:51:49;;;;;;;481.57;304.87;;;;;;;8.15;44.87;99437.03;5029920;28;20025;-58
2022/02/13 10:54:15;;;;;;;481.10;307.17;;;;;;;8.30;44.67;99431.16;5029973;28;20041;-58
2022/02/13 10:56:40;;;;;;;478.77;304.50;;;;;;;8.54;43.34;99427.81;5032815;28;20052;-58